Latest Weather Observations for Cape Otway

IDV60801

Issued at 1:05 pm EST Thursday 31 July 2014 (issued every 30 minutes, with the page automatically refreshed every 10 minutes)

About weather observations | Map of weather stations | Latest weather observations for VIC | Other Formats
Station Details ID: 090015 Name: CAPE OTWAY LIGHTHOUSE Lat: -38.86 Lon: 143.51 Height: 82.0 m
Data from the previous 72 hours. | See also: Recent months at Cape Otway
Date/Time
EST
Temp
°C
App
Temp
°C
Dew
Point
Rel
Hum
%
Delta-T
°C
Wind Press
QNH
hPa
Press
MSL
hPa
Rain
since 9 am
mm
Dir
 
Spd
km/h
Gust
km/h
Spd
kts
Gust
kts
31/01:00pm 8.5 -5.7 6.1 85 1.1 WNW 70 93 38 50 992.6 - 6.8
31/12:52pm 8.8 -3.5 7.1 89 0.8 WNW 61 91 33 49 992.2 - 6.6
31/12:36pm 9.3 -1.5 7.6 89 0.8 WNW 54 83 29 45 992.5 - 5.8
31/12:30pm 10.1 1.4 8.3 88 0.9 WNW 44 65 24 35 992.4 - 4.8
31/12:26pm 9.9 1.3 8.3 90 0.8 WNW 43 61 23 33 992.4 - 4.6
31/12:24pm 9.9 1.3 8.1 88 0.9 WNW 43 57 23 31 992.4 - 4.6
31/12:00pm 10.2 -1.9 7.7 84 1.2 WNW 61 83 33 45 992.2 992.2 3.8
31/11:55am 10.1 -2.0 7.8 86 1.1 WNW 61 80 33 43 992.3 - 3.6
31/11:54am 10.1 -1.2 7.8 86 1.1 WNW 57 80 31 43 992.3 - 3.6
31/11:53am 9.9 -2.9 7.9 87 1.0 WNW 65 80 35 43 992.3 - 3.4
31/11:30am 14.4 4.7 5.9 56 4.1 NNW 46 89 25 48 991.0 - 0.0
31/11:00am - - - - - NNW 48 72 26 39 - - 0.0
31/10:30am 14.6 4.2 5.9 56 4.2 NNW 50 76 27 41 991.7 - 0.0
31/10:00am 14.4 4.7 5.9 56 4.1 NNW 46 78 25 42 992.2 - 0.0
31/09:30am 13.9 4.8 6.0 59 3.8 NNW 43 67 23 36 992.9 - 0.0
31/09:00am 13.7 4.6 5.8 59 3.8 NNW 43 70 23 38 993.9 993.9 0.6
31/08:30am 13.6 5.3 5.9 59 3.7 NNW 39 57 21 31 994.2 - 0.6
31/08:00am 13.5 5.6 6.0 60 3.6 NNW 37 61 20 33 994.8 - 0.6
31/07:30am 13.6 5.3 5.9 59 3.7 NNW 39 57 21 31 995.5 - 0.6
31/07:00am 13.9 5.5 5.8 58 3.9 NNW 39 65 21 35 995.5 - 0.6
31/06:30am 14.0 4.8 5.6 57 4.0 NNW 43 69 23 37 996.0 - 0.6
31/06:00am 13.9 5.6 6.0 59 3.8 NNW 39 72 21 39 996.6 996.7 0.6
31/05:30am 13.8 4.8 6.4 61 3.6 NNW 43 63 23 34 996.9 - 0.6
31/05:00am 14.3 6.8 6.5 59 3.8 NNW 35 65 19 35 997.3 - 0.6
31/04:30am 14.4 6.1 6.2 58 3.9 NNW 39 63 21 34 997.7 - 0.6
31/04:00am 14.5 5.9 6.5 58 3.9 NNW 41 69 22 37 998.3 - 0.6
31/03:30am 14.5 6.3 6.5 58 3.9 NNW 39 65 21 35 999.0 - 0.6
31/03:00am 14.4 6.2 6.4 58 3.9 NNW 39 70 21 38 999.4 999.5 0.6
31/02:30am 14.3 4.4 6.8 60 3.7 NNW 48 70 26 38 999.8 - 0.6
31/02:00am 13.8 4.4 7.1 64 3.3 NNW 46 78 25 42 1000.3 - 0.6
31/01:30am 13.6 5.0 8.0 69 2.8 NNW 43 69 23 37 1001.0 - 0.6
31/01:00am 13.3 5.9 8.5 72 2.4 NNW 37 65 20 35 1001.8 - 0.6
31/12:30am 13.8 5.5 7.8 67 3.0 NNW 41 61 22 33 1002.5 - 0.6
31/12:00am 14.0 5.1 7.8 66 3.1 NNW 44 67 24 36 1003.1 1003.1 0.6
 
Date/Time
EST
Temp
°C
App
Temp
°C
Dew
Point
Rel
Hum
%
Delta-T
°C
Wind Press
QNH
hPa
Press
MSL
hPa
Rain
since 9 am
mm
Dir
 
Spd
km/h
Gust
km/h
Spd
kts
Gust
kts
30/11:30pm 13.3 5.9 8.3 72 2.5 NNW 37 59 20 32 1003.2 - 0.6
30/11:05pm 13.1 6.6 8.8 75 2.2 NNW 33 72 18 39 1003.5 - 0.6
30/11:04pm 13.1 6.6 8.8 75 2.2 NNW 33 72 18 39 1003.5 - 0.6
30/11:01pm 12.8 7.0 9.3 79 1.8 NNW 30 52 16 28 1003.7 - 0.6
30/11:00pm 12.8 7.0 9.3 79 1.8 NNW 30 46 16 25 1003.8 - 0.6
30/10:30pm 14.0 4.8 7.8 66 3.1 NNW 46 82 25 44 1003.9 - 0.6
30/10:00pm 13.8 5.6 8.0 68 2.9 NNW 41 67 22 36 1004.2 - 0.6
30/09:30pm 13.7 6.6 7.9 68 2.9 NNW 35 65 19 35 1004.2 - 0.6
30/09:00pm 14.0 6.8 7.6 65 3.2 NNW 35 69 19 37 1004.5 1004.5 0.6
30/08:30pm 14.0 6.8 7.6 65 3.2 NNW 35 57 19 31 1005.0 - 0.6
30/08:00pm 13.9 6.0 7.7 66 3.1 NNW 39 67 21 36 1005.2 - 0.6
30/07:30pm 14.2 6.7 7.8 65 3.2 NNW 37 61 20 33 1005.4 - 0.6
30/07:00pm 14.0 6.9 8.2 68 2.9 NW 35 57 19 31 1005.6 - 0.6
30/06:30pm 13.9 7.6 9.0 72 2.5 NNW 32 50 17 27 1005.3 - 0.6
30/06:00pm 13.9 7.2 9.6 75 2.2 NW 35 57 19 31 1005.7 1005.8 0.6
30/05:30pm 14.0 8.3 9.8 76 2.2 NW 30 50 16 27 1005.7 - 0.6
30/05:00pm 14.7 7.9 9.1 69 2.9 NW 35 57 19 31 1005.6 - 0.6
30/04:30pm 14.6 8.4 10.0 74 2.4 NW 33 54 18 29 1005.7 - 0.6
30/04:01pm 14.7 8.6 10.3 75 2.3 NW 33 52 18 28 1005.9 - 0.6
30/04:00pm 14.8 8.3 10.5 75 2.3 NW 35 52 19 28 1005.9 - 0.6
30/03:30pm 14.6 6.9 10.2 75 2.3 WNW 41 61 22 33 1006.0 - 0.6
30/03:06pm 14.7 7.3 9.9 73 2.5 NW 39 57 21 31 1006.1 - 0.6
30/03:05pm 14.7 7.3 9.9 73 2.5 NW 39 57 21 31 1006.1 - 0.6
30/03:00pm 14.7 7.4 10.1 74 2.4 NW 39 54 21 29 1006.1 1006.2 0.6
30/02:30pm 14.8 6.2 10.2 74 2.4 WNW 46 72 25 39 1006.0 - 0.6
30/02:00pm 14.4 5.8 10.4 77 2.1 WNW 46 69 25 37 1006.0 - 0.6
30/01:30pm 13.4 5.6 11.1 86 1.2 NW 43 69 23 37 1006.3 - 0.6
30/01:19pm 13.8 6.5 11.6 86 1.2 WNW 41 78 22 42 1006.5 - 0.2
30/01:00pm 15.1 7.8 10.2 72 2.6 NW 39 65 21 35 1006.5 - 0.0
30/12:30pm 14.5 7.2 10.3 76 2.2 NW 39 63 21 34 1007.3 - 0.0
30/12:00pm 14.2 6.1 10.0 76 2.2 NW 43 61 23 33 1007.8 1007.9 0.0
30/11:30am 14.2 6.8 9.8 75 2.3 NW 39 63 21 34 1008.0 - 0.0
30/11:01am 14.1 7.1 9.9 76 2.2 NW 37 56 20 30 1008.3 - 0.0
30/11:00am 14.1 6.7 9.9 76 2.2 NW 39 56 21 30 1008.3 - 0.0
30/10:30am 14.1 7.0 9.7 75 2.3 NW 37 57 20 31 1008.3 - 0.0
30/10:00am 13.5 6.7 9.4 76 2.1 NW 35 57 19 31 1008.6 - 0.0
30/09:30am 13.3 6.5 9.4 77 2.0 NW 35 57 19 31 1008.6 - 0.0
30/09:00am 13.2 5.7 9.5 78 1.9 NW 39 57 21 31 1008.8 1008.9 3.4
30/08:30am 12.8 5.6 9.3 79 1.8 NW 37 57 20 31 1008.4 - 3.4
30/08:01am 12.4 5.6 9.2 81 1.6 NW 35 54 19 29 1008.5 - 3.4
30/08:00am 12.4 5.9 9.0 80 1.7 NW 33 52 18 28 1008.5 - 3.4
30/07:46am 12.2 6.0 9.4 83 1.4 NW 32 52 17 28 1008.6 - 3.4
30/07:41am 12.3 6.5 9.3 82 1.5 NW 30 48 16 26 1008.6 - 3.4
30/07:30am 12.3 6.0 9.1 81 1.6 NW 32 48 17 26 1008.5 - 3.4
30/07:01am 12.1 5.9 9.3 83 1.4 NW 32 50 17 27 1008.0 - 3.4
30/07:00am 12.0 5.8 9.4 84 1.3 NW 32 48 17 26 1008.0 - 3.4
30/06:30am 12.2 5.8 9.5 83 1.4 NW 33 52 18 28 1008.1 - 3.4
30/06:10am 12.0 5.6 9.4 84 1.3 NW 33 54 18 29 1008.0 - 3.4
30/06:09am 12.0 5.6 9.4 84 1.3 NW 33 54 18 29 1008.0 - 3.4
30/06:00am 11.9 5.5 9.3 84 1.3 NW 33 46 18 25 1008.0 1008.1 3.4
30/05:30am 12.0 5.2 9.2 83 1.4 NW 35 50 19 27 1008.0 - 3.4
30/05:00am 12.4 6.2 9.5 82 1.5 NW 32 54 17 29 1008.0 - 3.4
30/04:30am 13.4 4.3 8.4 72 2.5 WNW 46 67 25 36 1007.7 - 3.4
30/04:08am 13.1 6.0 9.4 78 1.9 WNW 37 59 20 32 1007.7 - 3.4
30/04:00am 13.2 6.4 9.1 76 2.1 WNW 35 54 19 29 1007.8 - 3.4
30/03:39am 13.3 5.7 9.2 76 2.1 WNW 39 57 21 31 1007.8 - 3.4
30/03:38am 13.3 5.7 9.2 76 2.1 WNW 39 57 21 31 1007.8 - 3.4
30/03:30am 13.3 4.9 9.0 75 2.2 WNW 43 57 23 31 1008.0 - 3.4
30/03:00am 12.9 3.5 8.9 76 2.0 WNW 48 74 26 40 1008.1 1008.2 3.4
30/02:30am 12.1 4.0 10.6 90 0.8 WNW 44 63 24 34 1008.3 - 3.4
30/02:00am 13.5 6.4 9.4 76 2.1 WNW 37 56 20 30 1008.2 - 3.2
30/01:30am 13.4 5.9 9.3 76 2.1 WNW 39 59 21 32 1008.1 - 3.2
30/01:00am 13.5 6.0 9.6 77 2.0 WNW 39 57 21 31 1008.0 - 3.2
30/12:30am 13.6 6.2 9.7 77 2.0 WNW 39 57 21 31 1007.9 - 3.2
30/12:00am 13.5 5.3 9.6 77 2.0 WNW 43 70 23 38 1007.6 1007.7 3.2
 
Date/Time
EST
Temp
°C
App
Temp
°C
Dew
Point
Rel
Hum
%
Delta-T
°C
Wind Press
QNH
hPa
Press
MSL
hPa
Rain
since 9 am
mm
Dir
 
Spd
km/h
Gust
km/h
Spd
kts
Gust
kts
29/11:30pm 13.4 5.5 9.3 76 2.1 WNW 41 61 22 33 1007.4 - 3.2
29/11:00pm 13.2 4.5 11.3 88 1.0 WNW 48 80 26 43 1007.2 - 3.2
29/10:42pm 13.4 6.5 11.5 88 1.0 WNW 39 82 21 44 1007.0 - 3.0
29/10:41pm 13.4 6.5 11.5 88 1.0 WNW 39 82 21 44 1007.0 - 3.0
29/10:30pm 13.7 6.5 11.8 88 1.0 WNW 41 61 22 33 1007.0 - 3.0
29/10:00pm 13.2 5.6 11.7 91 0.8 WNW 43 65 23 35 1006.9 - 3.0
29/09:30pm 14.0 7.6 10.6 80 1.8 WNW 35 57 19 31 1006.4 - 2.4
29/09:00pm 13.9 6.5 11.3 84 1.4 WNW 41 61 22 33 1006.6 1006.7 2.4
29/08:36pm 13.9 6.7 10.7 81 1.7 WNW 39 57 21 31 1006.5 - 2.4
29/08:35pm 13.9 6.7 10.7 81 1.7 WNW 39 57 21 31 1006.5 - 2.4
29/08:30pm 13.9 6.4 10.9 82 1.6 WNW 41 57 22 31 1006.4 - 2.4
29/08:00pm 13.4 4.1 10.7 84 1.4 WNW 50 72 27 39 1006.0 - 2.4
29/07:38pm 13.6 4.8 10.8 83 1.5 WNW 48 67 26 36 1005.9 - 2.4
29/07:37pm 13.6 4.8 10.8 83 1.5 WNW 48 67 26 36 1005.9 - 2.4
29/07:30pm 13.6 4.8 11.0 84 1.4 WNW 48 65 26 35 1005.9 - 2.4
29/07:00pm 13.5 3.7 11.3 86 1.2 WNW 54 74 29 40 1005.2 - 2.2
29/06:30pm 13.8 3.7 10.4 80 1.8 WNW 54 76 29 41 1004.4 - 2.2
29/06:00pm 13.8 3.8 10.6 81 1.7 WNW 54 80 29 43 1004.0 1004.0 2.2
29/05:30pm 14.6 4.8 10.2 75 2.3 WNW 52 74 28 40 1003.6 - 2.2
29/05:00pm 14.0 3.5 11.0 82 1.6 WNW 57 83 31 45 1003.1 - 2.2
29/04:30pm 13.6 4.5 11.4 86 1.2 WNW 50 76 27 41 1002.9 - 2.0
29/04:00pm 14.6 6.5 10.2 75 2.3 NW 43 69 23 37 1002.6 - 1.6
29/03:30pm 14.2 6.1 10.8 80 1.8 NW 44 74 24 40 1002.4 - 1.6
29/03:00pm 14.8 7.1 10.3 74 2.4 NW 41 63 22 34 1002.1 1002.2 1.6
29/02:30pm 14.5 6.6 10.7 78 2.0 NW 43 63 23 34 1002.1 - 1.6
29/02:00pm 14.0 5.9 10.8 81 1.7 NW 44 69 24 37 1002.0 - 1.6
29/01:45pm 13.9 4.4 11.3 84 1.4 WNW 52 76 28 41 1002.0 - 1.6
29/01:44pm 13.9 4.8 11.3 84 1.4 WNW 50 76 27 41 1002.0 - 1.6
29/01:30pm 13.7 7.5 11.5 86 1.2 NW 35 56 19 30 1002.1 - 1.6
29/01:00pm 13.4 4.4 11.5 88 1.0 WNW 50 69 27 37 1002.7 - 0.6
29/12:30pm 14.9 6.8 9.9 72 2.6 NW 43 67 23 36 1002.0 - 0.4
29/12:00pm 14.8 6.1 9.8 72 2.6 NW 46 76 25 41 1002.5 1002.6 0.4
29/11:30am 14.2 6.0 9.8 75 2.3 NW 43 67 23 36 1003.1 - 0.4
29/11:00am 13.6 5.5 9.9 78 1.9 NNW 43 70 23 38 1003.4 - 0.4
29/10:30am 12.6 6.8 10.7 88 1.0 NW 32 54 17 29 1003.6 - 0.4
29/10:00am 12.8 5.5 10.1 84 1.4 NNW 39 65 21 35 1003.8 - 0.4
29/09:30am 12.6 5.3 10.3 86 1.2 NW 39 63 21 34 1003.9 - 0.0
29/09:00am 12.3 4.2 10.0 86 1.2 NNW 43 63 23 34 1003.5 1003.5 1.4
29/08:30am 12.2 4.5 10.1 87 1.1 NNW 41 65 22 35 1003.6 - 1.4
29/08:00am 12.0 4.6 9.9 87 1.1 NNW 39 70 21 38 1004.2 - 0.8
29/07:30am 12.2 4.0 9.7 85 1.3 NNW 43 70 23 38 1003.9 - 0.4
29/07:00am 12.4 4.0 9.5 82 1.5 NNW 44 69 24 37 1003.8 - 0.2
29/06:30am 12.5 3.9 8.9 79 1.8 NNW 44 65 24 35 1003.4 - 0.2
29/06:00am 13.4 4.7 7.8 69 2.8 NNW 43 80 23 43 1003.3 1003.3 0.0
29/05:30am 13.3 5.0 7.6 68 2.8 NNW 41 63 22 34 1003.4 - 0.0
29/05:00am 13.2 4.9 7.8 70 2.7 NNW 41 69 22 37 1003.9 - 0.0
29/04:30am 13.3 5.3 7.6 68 2.8 NNW 39 61 21 33 1003.9 - 0.0
29/04:00am 13.3 5.4 7.9 70 2.7 NW 39 59 21 32 1004.2 - 0.0
29/03:30am 13.3 6.2 7.9 70 2.7 NW 35 61 19 33 1004.6 - 0.0
29/03:00am 13.3 6.2 7.9 70 2.7 NW 35 59 19 32 1005.0 1005.1 0.0
29/02:30am 13.4 4.5 7.5 67 2.9 NNW 44 74 24 40 1005.1 - 0.0
29/02:00am 13.0 4.3 7.5 69 2.7 NNW 43 74 23 40 1005.8 - 0.0
29/01:30am 12.9 5.6 7.4 69 2.7 NNW 35 57 19 31 1006.1 - 0.0
29/01:00am 13.0 5.0 7.3 68 2.8 NNW 39 61 21 33 1006.5 - 0.0
29/12:30am 13.1 5.0 7.2 67 2.9 NNW 39 61 21 33 1007.1 - 0.0
29/12:00am 13.0 6.3 7.3 68 2.8 NW 32 52 17 28 1007.5 1007.6 0.0
 
Date/Time
EST
Temp
°C
App
Temp
°C
Dew
Point
Rel
Hum
%
Delta-T
°C
Wind Press
QNH
hPa
Press
MSL
hPa
Rain
since 9 am
mm
Dir
 
Spd
km/h
Gust
km/h
Spd
kts
Gust
kts
28/11:31pm 13.0 6.2 6.8 66 3.0 NNW 32 52 17 28 1007.9 - 0.0
28/11:30pm 13.0 6.2 6.8 66 3.0 NNW 32 48 17 26 1007.9 - 0.0
28/11:00pm 13.0 5.3 7.0 67 2.9 NNW 37 59 20 32 1008.3 - 0.0
28/10:30pm 13.4 5.6 6.6 63 3.3 NNW 37 59 20 32 1008.6 - 0.0
28/10:00pm 13.7 5.4 6.0 59 3.7 NNW 39 67 21 36 1008.7 - 0.0
28/09:30pm 13.5 6.4 6.2 61 3.5 NNW 33 54 18 29 1009.0 - 0.0
28/09:00pm 13.8 6.3 6.3 60 3.6 NNW 35 67 19 36 1009.2 1009.3 0.0
28/08:30pm 13.7 6.9 6.7 62 3.4 NNW 32 52 17 28 1009.0 - 0.0
28/08:00pm 13.9 7.0 6.5 61 3.6 NNW 32 54 17 29 1009.1 - 0.0
28/07:34pm 13.9 7.4 6.7 62 3.5 NNW 30 48 16 26 1009.1 - 0.0
28/07:33pm 13.9 7.4 6.7 62 3.5 NNW 30 48 16 26 1009.1 - 0.0
28/07:30pm 14.0 7.1 6.6 61 3.6 NNW 32 46 17 25 1009.1 - 0.0
28/07:00pm 14.0 7.2 6.8 62 3.5 NW 32 59 17 32 1009.3 - 0.0
28/06:51pm 14.0 7.2 6.8 62 3.5 NNW 32 50 17 27 1009.2 - 0.0
28/06:46pm 14.0 7.9 6.8 62 3.5 NW 28 46 15 25 1009.3 - 0.0
28/06:30pm 14.1 8.1 6.9 62 3.5 NW 28 43 15 23 1009.1 - 0.0
28/06:00pm 14.4 8.4 7.1 61 3.6 NW 28 44 15 24 1009.1 1009.2 0.0
28/05:30pm 14.4 8.8 7.3 62 3.5 NW 26 43 14 23 1009.1 - 0.0
28/05:00pm 14.7 9.2 7.5 62 3.6 NW 26 43 14 23 1009.0 - 0.0
28/04:30pm 15.2 10.4 7.4 59 3.9 NW 22 35 12 19 1009.0 - 0.0
28/04:00pm 15.4 9.5 7.6 59 3.9 NW 28 43 15 23 1009.2 - 0.0
28/03:51pm 15.4 9.4 7.1 57 4.1 NW 28 46 15 25 1009.1 - 0.0
28/03:50pm 15.4 9.4 7.1 57 4.1 NW 28 46 15 25 1009.1 - 0.0
28/03:30pm 15.5 10.0 7.5 59 4.0 NW 26 43 14 23 1009.3 - 0.0
28/03:00pm 15.4 8.7 7.4 59 4.0 NW 32 46 17 25 1009.7 1009.8 0.0
28/02:30pm 15.4 8.6 7.6 59 3.9 NW 33 54 18 29 1010.0 - 0.0
28/02:00pm 15.5 8.8 8.2 62 3.7 NW 33 54 18 29 1010.0 - 0.0
28/01:40pm 15.2 9.5 8.3 63 3.5 NW 28 46 15 25 1010.2 - 0.0
28/01:39pm 15.2 9.5 8.3 63 3.5 NW 28 46 15 25 1010.2 - 0.0
28/01:30pm 15.2 9.9 8.5 64 3.4 NW 26 43 14 23 1010.3 - 0.0

Other Formats:

Comma delimited format used in spreadsheet applications
http://www.bom.gov.au/fwo/IDV60801/IDV60801.94842.axf

JavaScript Object Notation format (JSON) in row-major order
http://www.bom.gov.au/fwo/IDV60801/IDV60801.94842.json